sensor_id;sensor_type;location;lat;lon;timestamp;P1;durP1;ratioP1;P2;durP2;ratioP2
29774;SDS011;16676;51.202;6.774;2023-02-01T00:03:14;3.70;;;1.80;;
29774;SDS011;16676;51.202;6.774;2023-02-01T00:07:17;4.28;;;2.28;;
29774;SDS011;16676;51.202;6.774;2023-02-01T00:11:19;5.03;;;2.28;;
29774;SDS011;16676;51.202;6.774;2023-02-01T00:15:21;3.63;;;2.08;;
29774;SDS011;16676;51.202;6.774;2023-02-01T00:19:23;3.95;;;1.92;;
29774;SDS011;16676;51.202;6.774;2023-02-01T00:23:27;3.92;;;1.90;;
29774;SDS011;16676;51.202;6.774;2023-02-01T00:27:29;6.63;;;2.08;;
29774;SDS011;16676;51.202;6.774;2023-02-01T00:31:31;4.13;;;1.90;;
29774;SDS011;16676;51.202;6.774;2023-02-01T00:35:33;5.57;;;1.98;;
29774;SDS011;16676;51.202;6.774;2023-02-01T00:39:36;7.10;;;2.10;;
29774;SDS011;16676;51.202;6.774;2023-02-01T00:43:39;4.32;;;2.03;;
29774;SDS011;16676;51.202;6.774;2023-02-01T00:47:41;3.70;;;1.90;;
29774;SDS011;16676;51.202;6.774;2023-02-01T00:51:42;3.88;;;1.80;;
29774;SDS011;16676;51.202;6.774;2023-02-01T00:55:46;4.38;;;1.70;;
29774;SDS011;16676;51.202;6.774;2023-02-01T00:59:48;3.95;;;2.17;;
29774;SDS011;16676;51.202;6.774;2023-02-01T01:03:51;4.75;;;2.05;;
29774;SDS011;16676;51.202;6.774;2023-02-01T01:07:55;4.97;;;1.75;;
29774;SDS011;16676;51.202;6.774;2023-02-01T01:11:59;3.53;;;1.55;;
29774;SDS011;16676;51.202;6.774;2023-02-01T01:16:03;3.60;;;1.88;;
29774;SDS011;16676;51.202;6.774;2023-02-01T01:20:06;3.95;;;1.60;;
29774;SDS011;16676;51.202;6.774;2023-02-01T01:24:09;6.38;;;2.10;;
29774;SDS011;16676;51.202;6.774;2023-02-01T01:28:12;4.22;;;1.95;;
29774;SDS011;16676;51.202;6.774;2023-02-01T01:32:14;2.20;;;1.40;;
29774;SDS011;16676;51.202;6.774;2023-02-01T01:36:16;2.97;;;1.75;;
29774;SDS011;16676;51.202;6.774;2023-02-01T01:40:18;2.67;;;1.70;;
29774;SDS011;16676;51.202;6.774;2023-02-01T01:49:01;2.95;;;1.90;;
29774;SDS011;16676;51.202;6.774;2023-02-01T01:53:07;4.50;;;1.65;;
29774;SDS011;16676;51.202;6.774;2023-02-01T01:57:13;3.92;;;2.00;;
29774;SDS011;16676;51.202;6.774;2023-02-01T02:01:20;2.70;;;1.70;;
29774;SDS011;16676;51.202;6.774;2023-02-01T02:05:22;3.60;;;1.50;;
29774;SDS011;16676;51.202;6.774;2023-02-01T02:09:24;4.07;;;1.80;;
29774;SDS011;16676;51.202;6.774;2023-02-01T02:13:27;3.33;;;1.80;;
29774;SDS011;16676;51.202;6.774;2023-02-01T02:17:33;5.15;;;1.77;;
29774;SDS011;16676;51.202;6.774;2023-02-01T02:21:49;2.97;;;1.58;;
29774;SDS011;16676;51.202;6.774;2023-02-01T02:26:14;4.80;;;1.52;;
29774;SDS011;16676;51.202;6.774;2023-02-01T02:30:38;5.78;;;1.70;;
29774;SDS011;16676;51.202;6.774;2023-02-01T02:34:54;3.38;;;1.55;;
29774;SDS011;16676;51.202;6.774;2023-02-01T02:39:03;4.35;;;1.75;;
29774;SDS011;16676;51.202;6.774;2023-02-01T02:47:32;4.97;;;2.00;;
29774;SDS011;16676;51.202;6.774;2023-02-01T02:51:40;4.82;;;1.83;;
29774;SDS011;16676;51.202;6.774;2023-02-01T02:56:02;2.85;;;1.30;;
29774;SDS011;16676;51.202;6.774;2023-02-01T03:00:25;3.83;;;1.52;;
29774;SDS011;16676;51.202;6.774;2023-02-01T03:04:51;2.88;;;1.50;;
29774;SDS011;16676;51.202;6.774;2023-02-01T03:08:58;2.95;;;1.40;;
29774;SDS011;16676;51.202;6.774;2023-02-01T03:13:03;4.35;;;1.80;;
29774;SDS011;16676;51.202;6.774;2023-02-01T03:17:08;3.88;;;1.50;;
29774;SDS011;16676;51.202;6.774;2023-02-01T03:21:16;2.00;;;1.10;;
29774;SDS011;16676;51.202;6.774;2023-02-01T03:25:25;2.90;;;1.60;;
29774;SDS011;16676;51.202;6.774;2023-02-01T03:29:30;3.65;;;1.50;;
29774;SDS011;16676;51.202;6.774;2023-02-01T03:33:38;4.07;;;1.40;;
29774;SDS011;16676;51.202;6.774;2023-02-01T03:37:40;2.88;;;1.40;;
29774;SDS011;16676;51.202;6.774;2023-02-01T03:41:44;2.83;;;1.35;;
29774;SDS011;16676;51.202;6.774;2023-02-01T03:45:52;3.30;;;1.55;;
29774;SDS011;16676;51.202;6.774;2023-02-01T03:49:58;2.88;;;1.50;;
29774;SDS011;16676;51.202;6.774;2023-02-01T03:54:04;2.25;;;1.45;;
29774;SDS011;16676;51.202;6.774;2023-02-01T03:58:09;3.30;;;1.27;;
29774;SDS011;16676;51.202;6.774;2023-02-01T04:02:14;4.05;;;1.55;;
29774;SDS011;16676;51.202;6.774;2023-02-01T04:06:16;5.07;;;1.80;;
29774;SDS011;16676;51.202;6.774;2023-02-01T04:10:18;2.42;;;1.50;;
29774;SDS011;16676;51.202;6.774;2023-02-01T04:14:21;3.10;;;1.20;;
29774;SDS011;16676;51.202;6.774;2023-02-01T04:18:23;2.35;;;1.33;;
29774;SDS011;16676;51.202;6.774;2023-02-01T04:22:25;2.42;;;1.33;;
29774;SDS011;16676;51.202;6.774;2023-02-01T04:26:28;3.75;;;1.30;;
29774;SDS011;16676;51.202;6.774;2023-02-01T04:30:32;3.63;;;1.50;;
29774;SDS011;16676;51.202;6.774;2023-02-01T04:34:34;4.10;;;1.50;;
29774;SDS011;16676;51.202;6.774;2023-02-01T04:38:36;3.45;;;1.65;;
29774;SDS011;16676;51.202;6.774;2023-02-01T04:42:37;3.50;;;1.42;;
29774;SDS011;16676;51.202;6.774;2023-02-01T04:46:41;3.33;;;1.60;;
29774;SDS011;16676;51.202;6.774;2023-02-01T04:50:43;3.15;;;1.63;;
29774;SDS011;16676;51.202;6.774;2023-02-01T04:54:47;5.47;;;1.55;;
29774;SDS011;16676;51.202;6.774;2023-02-01T04:58:49;2.50;;;1.25;;
29774;SDS011;16676;51.202;6.774;2023-02-01T05:02:52;4.35;;;1.52;;
29774;SDS011;16676;51.202;6.774;2023-02-01T05:06:54;4.95;;;1.75;;
29774;SDS011;16676;51.202;6.774;2023-02-01T05:10:56;4.78;;;1.45;;
29774;SDS011;16676;51.202;6.774;2023-02-01T05:14:59;3.45;;;1.33;;
29774;SDS011;16676;51.202;6.774;2023-02-01T05:19:02;3.58;;;1.33;;
29774;SDS011;16676;51.202;6.774;2023-02-01T05:23:04;2.42;;;1.20;;
29774;SDS011;16676;51.202;6.774;2023-02-01T05:27:06;4.65;;;1.30;;
29774;SDS011;16676;51.202;6.774;2023-02-01T05:31:09;2.58;;;1.35;;
29774;SDS011;16676;51.202;6.774;2023-02-01T05:35:12;4.93;;;1.67;;
29774;SDS011;16676;51.202;6.774;2023-02-01T05:39:14;2.78;;;1.63;;
29774;SDS011;16676;51.202;6.774;2023-02-01T05:43:16;3.53;;;1.40;;
29774;SDS011;16676;51.202;6.774;2023-02-01T05:47:18;3.90;;;1.45;;
29774;SDS011;16676;51.202;6.774;2023-02-01T05:51:22;5.45;;;1.58;;
29774;SDS011;16676;51.202;6.774;2023-02-01T05:55:24;3.22;;;1.30;;
29774;SDS011;16676;51.202;6.774;2023-02-01T05:59:26;4.82;;;1.63;;
29774;SDS011;16676;51.202;6.774;2023-02-01T06:03:28;5.90;;;1.90;;
29774;SDS011;16676;51.202;6.774;2023-02-01T06:07:32;5.97;;;1.67;;
29774;SDS011;16676;51.202;6.774;2023-02-01T06:11:34;9.02;;;1.85;;
29774;SDS011;16676;51.202;6.774;2023-02-01T06:15:36;4.00;;;1.60;;
29774;SDS011;16676;51.202;6.774;2023-02-01T06:19:38;5.43;;;1.63;;
29774;SDS011;16676;51.202;6.774;2023-02-01T06:23:42;2.33;;;1.40;;
29774;SDS011;16676;51.202;6.774;2023-02-01T06:27:44;3.90;;;1.20;;
29774;SDS011;16676;51.202;6.774;2023-02-01T06:31:46;3.60;;;1.40;;
29774;SDS011;16676;51.202;6.774;2023-02-01T06:35:48;4.93;;;1.60;;
29774;SDS011;16676;51.202;6.774;2023-02-01T06:39:51;6.78;;;1.42;;
29774;SDS011;16676;51.202;6.774;2023-02-01T06:43:53;4.68;;;1.40;;
29774;SDS011;16676;51.202;6.774;2023-02-01T06:47:55;4.85;;;1.48;;
29774;SDS011;16676;51.202;6.774;2023-02-01T06:51:57;8.65;;;1.80;;
29774;SDS011;16676;51.202;6.774;2023-02-01T06:56:02;4.85;;;1.40;;
29774;SDS011;16676;51.202;6.774;2023-02-01T07:00:05;6.40;;;1.50;;
29774;SDS011;16676;51.202;6.774;2023-02-01T07:04:08;5.45;;;1.55;;
29774;SDS011;16676;51.202;6.774;2023-02-01T07:08:11;7.53;;;1.65;;
29774;SDS011;16676;51.202;6.774;2023-02-01T07:12:15;8.23;;;1.83;;
29774;SDS011;16676;51.202;6.774;2023-02-01T07:16:18;5.88;;;1.50;;
29774;SDS011;16676;51.202;6.774;2023-02-01T07:20:20;5.80;;;1.58;;
29774;SDS011;16676;51.202;6.774;2023-02-01T07:24:22;8.15;;;1.70;;
29774;SDS011;16676;51.202;6.774;2023-02-01T07:28:25;4.63;;;1.63;;
29774;SDS011;16676;51.202;6.774;2023-02-01T07:32:29;4.47;;;1.50;;
29774;SDS011;16676;51.202;6.774;2023-02-01T07:36:31;7.22;;;1.50;;
29774;SDS011;16676;51.202;6.774;2023-02-01T07:40:34;5.82;;;1.88;;
29774;SDS011;16676;51.202;6.774;2023-02-01T07:44:37;4.07;;;1.50;;
29774;SDS011;16676;51.202;6.774;2023-02-01T07:48:39;3.55;;;1.70;;
29774;SDS011;16676;51.202;6.774;2023-02-01T07:52:41;5.70;;;1.58;;
29774;SDS011;16676;51.202;6.774;2023-02-01T07:56:43;5.80;;;1.60;;
29774;SDS011;16676;51.202;6.774;2023-02-01T08:00:47;4.18;;;1.38;;
29774;SDS011;16676;51.202;6.774;2023-02-01T08:05:07;4.57;;;1.50;;
29774;SDS011;16676;51.202;6.774;2023-02-01T08:09:10;4.85;;;1.50;;
29774;SDS011;16676;51.202;6.774;2023-02-01T08:13:12;6.70;;;1.60;;
29774;SDS011;16676;51.202;6.774;2023-02-01T08:17:15;7.22;;;1.85;;
29774;SDS011;16676;51.202;6.774;2023-02-01T08:21:18;4.15;;;1.75;;
29774;SDS011;16676;51.202;6.774;2023-02-01T08:25:22;4.28;;;1.40;;
29774;SDS011;16676;51.202;6.774;2023-02-01T08:29:24;4.13;;;1.60;;
29774;SDS011;16676;51.202;6.774;2023-02-01T08:33:28;6.82;;;1.30;;
29774;SDS011;16676;51.202;6.774;2023-02-01T08:37:30;2.60;;;1.20;;
29774;SDS011;16676;51.202;6.774;2023-02-01T08:41:32;5.40;;;1.33;;
29774;SDS011;16676;51.202;6.774;2023-02-01T08:45:34;3.05;;;1.23;;
29774;SDS011;16676;51.202;6.774;2023-02-01T08:49:37;5.95;;;1.60;;
29774;SDS011;16676;51.202;6.774;2023-02-01T08:53:39;5.72;;;1.67;;
29774;SDS011;16676;51.202;6.774;2023-02-01T08:57:41;7.00;;;1.63;;
29774;SDS011;16676;51.202;6.774;2023-02-01T09:01:43;5.07;;;1.50;;
29774;SDS011;16676;51.202;6.774;2023-02-01T09:05:47;2.35;;;1.20;;
29774;SDS011;16676;51.202;6.774;2023-02-01T09:09:49;4.45;;;1.27;;
29774;SDS011;16676;51.202;6.774;2023-02-01T09:13:50;4.10;;;1.50;;
29774;SDS011;16676;51.202;6.774;2023-02-01T09:17:52;5.10;;;1.35;;
29774;SDS011;16676;51.202;6.774;2023-02-01T09:21:56;4.45;;;1.40;;
29774;SDS011;16676;51.202;6.774;2023-02-01T09:25:58;2.85;;;1.38;;
29774;SDS011;16676;51.202;6.774;2023-02-01T09:30:00;4.38;;;1.40;;
29774;SDS011;16676;51.202;6.774;2023-02-01T09:34:02;15.27;;;2.10;;
29774;SDS011;16676;51.202;6.774;2023-02-01T09:38:06;4.95;;;1.65;;
29774;SDS011;16676;51.202;6.774;2023-02-01T09:42:14;6.82;;;1.60;;
29774;SDS011;16676;51.202;6.774;2023-02-01T09:46:23;6.28;;;1.25;;
29774;SDS011;16676;51.202;6.774;2023-02-01T09:50:28;3.33;;;1.13;;
29774;SDS011;16676;51.202;6.774;2023-02-01T09:54:40;5.78;;;1.55;;
29774;SDS011;16676;51.202;6.774;2023-02-01T09:58:44;3.65;;;1.38;;
29774;SDS011;16676;51.202;6.774;2023-02-01T10:02:50;3.03;;;1.50;;
29774;SDS011;16676;51.202;6.774;2023-02-01T10:06:57;8.95;;;1.52;;
29774;SDS011;16676;51.202;6.774;2023-02-01T10:11:13;5.40;;;1.40;;
29774;SDS011;16676;51.202;6.774;2023-02-01T10:15:34;4.40;;;1.40;;
29774;SDS011;16676;51.202;6.774;2023-02-01T10:19:47;6.60;;;1.58;;
29774;SDS011;16676;51.202;6.774;2023-02-01T10:24:11;3.47;;;1.35;;
29774;SDS011;16676;51.202;6.774;2023-02-01T10:28:38;4.72;;;1.27;;
29774;SDS011;16676;51.202;6.774;2023-02-01T10:32:42;6.05;;;1.52;;
29774;SDS011;16676;51.202;6.774;2023-02-01T10:36:48;5.80;;;1.45;;
29774;SDS011;16676;51.202;6.774;2023-02-01T10:40:55;5.38;;;1.90;;
29774;SDS011;16676;51.202;6.774;2023-02-01T10:45:03;6.47;;;1.95;;
29774;SDS011;16676;51.202;6.774;2023-02-01T10:49:10;4.15;;;1.70;;
29774;SDS011;16676;51.202;6.774;2023-02-01T10:53:18;4.45;;;1.40;;
29774;SDS011;16676;51.202;6.774;2023-02-01T10:57:25;5.53;;;1.58;;
29774;SDS011;16676;51.202;6.774;2023-02-01T11:01:33;4.07;;;1.08;;
29774;SDS011;16676;51.202;6.774;2023-02-01T11:05:43;6.03;;;1.77;;
29774;SDS011;16676;51.202;6.774;2023-02-01T11:09:48;3.53;;;1.40;;
29774;SDS011;16676;51.202;6.774;2023-02-01T11:13:56;6.60;;;1.58;;
29774;SDS011;16676;51.202;6.774;2023-02-01T11:18:12;5.47;;;1.75;;
29774;SDS011;16676;51.202;6.774;2023-02-01T11:22:17;3.78;;;1.42;;
29774;SDS011;16676;51.202;6.774;2023-02-01T11:26:20;4.70;;;1.58;;
29774;SDS011;16676;51.202;6.774;2023-02-01T11:30:27;6.18;;;1.52;;
29774;SDS011;16676;51.202;6.774;2023-02-01T11:34:36;4.43;;;1.45;;
29774;SDS011;16676;51.202;6.774;2023-02-01T11:38:45;4.68;;;1.45;;
29774;SDS011;16676;51.202;6.774;2023-02-01T11:42:55;7.00;;;1.77;;
29774;SDS011;16676;51.202;6.774;2023-02-01T11:47:18;3.17;;;1.42;;
29774;SDS011;16676;51.202;6.774;2023-02-01T11:51:35;2.53;;;1.33;;
29774;SDS011;16676;51.202;6.774;2023-02-01T11:55:52;7.43;;;1.58;;
29774;SDS011;16676;51.202;6.774;2023-02-01T12:00:06;6.05;;;1.30;;
29774;SDS011;16676;51.202;6.774;2023-02-01T12:04:29;5.75;;;1.40;;
29774;SDS011;16676;51.202;6.774;2023-02-01T12:08:51;4.55;;;1.80;;
29774;SDS011;16676;51.202;6.774;2023-02-01T12:13:10;4.13;;;1.50;;
29774;SDS011;16676;51.202;6.774;2023-02-01T12:17:31;5.35;;;1.65;;
29774;SDS011;16676;51.202;6.774;2023-02-01T12:21:53;5.03;;;1.42;;
29774;SDS011;16676;51.202;6.774;2023-02-01T12:26:08;5.88;;;1.88;;
29774;SDS011;16676;51.202;6.774;2023-02-01T12:30:35;4.78;;;1.30;;
29774;SDS011;16676;51.202;6.774;2023-02-01T12:35:12;4.70;;;1.80;;
29774;SDS011;16676;51.202;6.774;2023-02-01T12:39:23;6.85;;;1.88;;
29774;SDS011;16676;51.202;6.774;2023-02-01T12:43:33;4.38;;;1.45;;
29774;SDS011;16676;51.202;6.774;2023-02-01T12:47:40;4.47;;;1.50;;
29774;SDS011;16676;51.202;6.774;2023-02-01T12:51:46;4.18;;;1.45;;
29774;SDS011;16676;51.202;6.774;2023-02-01T12:55:52;4.57;;;1.65;;
29774;SDS011;16676;51.202;6.774;2023-02-01T12:59:59;3.53;;;1.40;;
29774;SDS011;16676;51.202;6.774;2023-02-01T13:04:08;4.72;;;1.48;;
29774;SDS011;16676;51.202;6.774;2023-02-01T13:08:16;3.38;;;1.27;;
29774;SDS011;16676;51.202;6.774;2023-02-01T13:12:23;4.32;;;1.70;;
29774;SDS011;16676;51.202;6.774;2023-02-01T13:16:38;5.75;;;1.75;;
29774;SDS011;16676;51.202;6.774;2023-02-01T13:20:46;3.90;;;1.48;;
29774;SDS011;16676;51.202;6.774;2023-02-01T13:24:54;3.35;;;1.52;;
29774;SDS011;16676;51.202;6.774;2023-02-01T13:28:59;5.97;;;1.50;;
29774;SDS011;16676;51.202;6.774;2023-02-01T13:33:11;4.18;;;1.50;;
29774;SDS011;16676;51.202;6.774;2023-02-01T13:37:36;5.03;;;1.80;;
29774;SDS011;16676;51.202;6.774;2023-02-01T13:41:51;4.18;;;1.38;;
29774;SDS011;16676;51.202;6.774;2023-02-01T13:45:56;4.80;;;1.70;;
29774;SDS011;16676;51.202;6.774;2023-02-01T13:54:26;3.53;;;1.00;;
29774;SDS011;16676;51.202;6.774;2023-02-01T13:58:31;5.05;;;1.40;;
29774;SDS011;16676;51.202;6.774;2023-02-01T14:02:36;4.30;;;1.60;;
29774;SDS011;16676;51.202;6.774;2023-02-01T14:06:49;3.15;;;1.27;;
29774;SDS011;16676;51.202;6.774;2023-02-01T14:10:54;6.77;;;1.87;;
29774;SDS011;16676;51.202;6.774;2023-02-01T14:15:14;3.13;;;1.35;;
29774;SDS011;16676;51.202;6.774;2023-02-01T14:19:22;5.45;;;1.88;;
29774;SDS011;16676;51.202;6.774;2023-02-01T14:23:28;2.88;;;1.25;;
29774;SDS011;16676;51.202;6.774;2023-02-01T14:27:34;5.45;;;1.55;;
29774;SDS011;16676;51.202;6.774;2023-02-01T14:31:41;2.80;;;1.55;;
29774;SDS011;16676;51.202;6.774;2023-02-01T14:35:57;4.32;;;1.45;;
29774;SDS011;16676;51.202;6.774;2023-02-01T14:40:14;3.03;;;1.20;;
29774;SDS011;16676;51.202;6.774;2023-02-01T14:44:22;5.28;;;1.20;;
29774;SDS011;16676;51.202;6.774;2023-02-01T14:48:43;4.55;;;1.35;;
29774;SDS011;16676;51.202;6.774;2023-02-01T14:52:49;4.13;;;1.35;;
29774;SDS011;16676;51.202;6.774;2023-02-01T14:57:01;5.10;;;1.40;;
29774;SDS011;16676;51.202;6.774;2023-02-01T15:01:05;6.35;;;1.80;;
29774;SDS011;16676;51.202;6.774;2023-02-01T15:05:23;2.25;;;0.95;;
29774;SDS011;16676;51.202;6.774;2023-02-01T15:09:30;4.50;;;1.50;;
29774;SDS011;16676;51.202;6.774;2023-02-01T15:13:36;4.13;;;1.20;;
29774;SDS011;16676;51.202;6.774;2023-02-01T15:17:38;3.53;;;1.20;;
29774;SDS011;16676;51.202;6.774;2023-02-01T15:21:43;3.80;;;1.17;;
29774;SDS011;16676;51.202;6.774;2023-02-01T15:25:47;4.82;;;1.23;;
29774;SDS011;16676;51.202;6.774;2023-02-01T15:29:50;4.70;;;1.25;;
29774;SDS011;16676;51.202;6.774;2023-02-01T15:33:56;4.15;;;1.20;;
29774;SDS011;16676;51.202;6.774;2023-02-01T15:42:35;4.38;;;1.42;;
29774;SDS011;16676;51.202;6.774;2023-02-01T15:46:41;3.03;;;1.42;;
29774;SDS011;16676;51.202;6.774;2023-02-01T15:50:47;3.75;;;1.30;;
29774;SDS011;16676;51.202;6.774;2023-02-01T15:54:50;3.13;;;1.30;;
29774;SDS011;16676;51.202;6.774;2023-02-01T15:58:56;3.25;;;1.00;;
29774;SDS011;16676;51.202;6.774;2023-02-01T16:03:02;3.95;;;1.25;;
29774;SDS011;16676;51.202;6.774;2023-02-01T16:07:06;5.03;;;1.67;;
29774;SDS011;16676;51.202;6.774;2023-02-01T16:11:28;3.63;;;1.50;;
29774;SDS011;16676;51.202;6.774;2023-02-01T16:15:32;4.60;;;1.45;;
29774;SDS011;16676;51.202;6.774;2023-02-01T16:19:35;2.88;;;1.30;;
29774;SDS011;16676;51.202;6.774;2023-02-01T16:23:37;3.28;;;1.30;;
29774;SDS011;16676;51.202;6.774;2023-02-01T16:27:39;3.33;;;1.63;;
29774;SDS011;16676;51.202;6.774;2023-02-01T16:31:41;4.53;;;1.30;;
29774;SDS011;16676;51.202;6.774;2023-02-01T16:35:44;5.88;;;1.42;;
29774;SDS011;16676;51.202;6.774;2023-02-01T16:39:47;4.60;;;1.48;;
29774;SDS011;16676;51.202;6.774;2023-02-01T16:43:49;3.13;;;1.15;;
29774;SDS011;16676;51.202;6.774;2023-02-01T16:47:53;3.10;;;1.17;;
29774;SDS011;16676;51.202;6.774;2023-02-01T16:51:58;5.57;;;1.55;;
29774;SDS011;16676;51.202;6.774;2023-02-01T16:56:00;3.80;;;1.15;;
29774;SDS011;16676;51.202;6.774;2023-02-01T17:00:04;3.67;;;1.30;;
29774;SDS011;16676;51.202;6.774;2023-02-01T17:04:06;5.68;;;1.45;;
29774;SDS011;16676;51.202;6.774;2023-02-01T17:08:10;3.88;;;1.10;;
29774;SDS011;16676;51.202;6.774;2023-02-01T17:12:16;4.93;;;1.52;;
29774;SDS011;16676;51.202;6.774;2023-02-01T17:16:25;5.78;;;1.30;;
29774;SDS011;16676;51.202;6.774;2023-02-01T17:20:28;3.53;;;1.00;;
29774;SDS011;16676;51.202;6.774;2023-02-01T17:24:34;6.28;;;1.40;;
29774;SDS011;16676;51.202;6.774;2023-02-01T17:28:35;5.43;;;1.33;;
29774;SDS011;16676;51.202;6.774;2023-02-01T17:32:38;3.45;;;1.05;;
29774;SDS011;16676;51.202;6.774;2023-02-01T17:36:40;9.45;;;1.55;;
29774;SDS011;16676;51.202;6.774;2023-02-01T17:40:43;7.38;;;1.00;;
29774;SDS011;16676;51.202;6.774;2023-02-01T17:44:45;6.03;;;1.38;;
29774;SDS011;16676;51.202;6.774;2023-02-01T17:48:47;5.07;;;1.73;;
29774;SDS011;16676;51.202;6.774;2023-02-01T17:52:49;6.72;;;2.25;;
29774;SDS011;16676;51.202;6.774;2023-02-01T17:56:53;6.25;;;2.20;;
29774;SDS011;16676;51.202;6.774;2023-02-01T18:00:55;5.55;;;1.70;;
29774;SDS011;16676;51.202;6.774;2023-02-01T18:04:58;46.30;;;18.38;;
29774;SDS011;16676;51.202;6.774;2023-02-01T18:09:00;112.07;;;32.50;;
29774;SDS011;16676;51.202;6.774;2023-02-01T18:13:03;102.32;;;28.25;;
29774;SDS011;16676;51.202;6.774;2023-02-01T18:17:05;60.05;;;18.73;;
29774;SDS011;16676;51.202;6.774;2023-02-01T18:21:08;54.15;;;16.88;;
29774;SDS011;16676;51.202;6.774;2023-02-01T18:25:17;59.72;;;17.27;;
29774;SDS011;16676;51.202;6.774;2023-02-01T18:29:22;60.90;;;18.05;;
29774;SDS011;16676;51.202;6.774;2023-02-01T18:33:24;54.42;;;16.92;;
29774;SDS011;16676;51.202;6.774;2023-02-01T18:37:26;52.83;;;16.15;;
29774;SDS011;16676;51.202;6.774;2023-02-01T18:41:28;48.25;;;16.23;;
29774;SDS011;16676;51.202;6.774;2023-02-01T18:45:33;48.50;;;14.57;;
29774;SDS011;16676;51.202;6.774;2023-02-01T18:49:36;48.42;;;15.18;;
29774;SDS011;16676;51.202;6.774;2023-02-01T18:53:38;49.15;;;14.70;;
29774;SDS011;16676;51.202;6.774;2023-02-01T18:57:40;45.83;;;14.00;;
29774;SDS011;16676;51.202;6.774;2023-02-01T19:01:43;40.63;;;13.77;;
29774;SDS011;16676;51.202;6.774;2023-02-01T19:05:45;37.33;;;13.43;;
29774;SDS011;16676;51.202;6.774;2023-02-01T19:09:48;33.70;;;11.77;;
29774;SDS011;16676;51.202;6.774;2023-02-01T19:13:50;36.70;;;12.18;;
29774;SDS011;16676;51.202;6.774;2023-02-01T19:17:55;40.63;;;13.23;;
29774;SDS011;16676;51.202;6.774;2023-02-01T19:21:57;44.65;;;12.93;;
29774;SDS011;16676;51.202;6.774;2023-02-01T19:25:59;44.70;;;12.50;;
29774;SDS011;16676;51.202;6.774;2023-02-01T19:30:01;32.00;;;11.80;;
29774;SDS011;16676;51.202;6.774;2023-02-01T19:34:05;39.35;;;11.35;;
29774;SDS011;16676;51.202;6.774;2023-02-01T19:38:07;33.40;;;11.13;;
29774;SDS011;16676;51.202;6.774;2023-02-01T19:42:10;31.98;;;10.45;;
29774;SDS011;16676;51.202;6.774;2023-02-01T19:46:13;31.17;;;11.18;;
29774;SDS011;16676;51.202;6.774;2023-02-01T19:50:16;31.80;;;10.90;;
29774;SDS011;16676;51.202;6.774;2023-02-01T19:54:20;28.45;;;6.53;;
29774;SDS011;16676;51.202;6.774;2023-02-01T19:58:22;27.00;;;6.32;;
29774;SDS011;16676;51.202;6.774;2023-02-01T20:02:25;30.58;;;6.15;;
29774;SDS011;16676;51.202;6.774;2023-02-01T20:06:30;24.73;;;6.20;;
29774;SDS011;16676;51.202;6.774;2023-02-01T20:10:32;26.25;;;6.53;;
29774;SDS011;16676;51.202;6.774;2023-02-01T20:14:35;21.85;;;6.63;;
29774;SDS011;16676;51.202;6.774;2023-02-01T20:18:37;23.25;;;6.50;;
29774;SDS011;16676;51.202;6.774;2023-02-01T20:22:40;15.38;;;5.40;;
29774;SDS011;16676;51.202;6.774;2023-02-01T20:26:45;16.02;;;5.15;;
29774;SDS011;16676;51.202;6.774;2023-02-01T20:30:48;22.02;;;5.63;;
29774;SDS011;16676;51.202;6.774;2023-02-01T20:34:50;21.52;;;5.68;;
29774;SDS011;16676;51.202;6.774;2023-02-01T20:38:54;19.20;;;6.10;;
29774;SDS011;16676;51.202;6.774;2023-02-01T20:42:57;17.05;;;5.90;;
29774;SDS011;16676;51.202;6.774;2023-02-01T20:46:58;17.50;;;5.28;;
29774;SDS011;16676;51.202;6.774;2023-02-01T20:51:02;19.02;;;4.88;;
29774;SDS011;16676;51.202;6.774;2023-02-01T20:55:06;16.20;;;5.28;;
29774;SDS011;16676;51.202;6.774;2023-02-01T20:59:08;18.48;;;5.57;;
29774;SDS011;16676;51.202;6.774;2023-02-01T21:03:11;16.08;;;4.85;;
29774;SDS011;16676;51.202;6.774;2023-02-01T21:07:13;14.35;;;4.55;;
29774;SDS011;16676;51.202;6.774;2023-02-01T21:11:17;19.17;;;5.00;;
29774;SDS011;16676;51.202;6.774;2023-02-01T21:15:19;19.80;;;5.82;;
29774;SDS011;16676;51.202;6.774;2023-02-01T21:19:24;14.77;;;4.60;;
29774;SDS011;16676;51.202;6.774;2023-02-01T21:23:26;13.30;;;4.28;;
29774;SDS011;16676;51.202;6.774;2023-02-01T21:27:30;13.30;;;4.53;;
29774;SDS011;16676;51.202;6.774;2023-02-01T21:31:32;15.90;;;4.18;;
29774;SDS011;16676;51.202;6.774;2023-02-01T21:35:38;14.65;;;4.20;;
29774;SDS011;16676;51.202;6.774;2023-02-01T21:39:41;13.82;;;4.65;;
29774;SDS011;16676;51.202;6.774;2023-02-01T21:43:44;15.45;;;4.95;;
29774;SDS011;16676;51.202;6.774;2023-02-01T21:47:46;15.52;;;4.32;;
29774;SDS011;16676;51.202;6.774;2023-02-01T21:51:48;14.15;;;4.63;;
29774;SDS011;16676;51.202;6.774;2023-02-01T21:55:50;13.20;;;4.43;;
29774;SDS011;16676;51.202;6.774;2023-02-01T21:59:54;13.15;;;4.35;;
29774;SDS011;16676;51.202;6.774;2023-02-01T22:03:57;13.90;;;4.18;;
29774;SDS011;16676;51.202;6.774;2023-02-01T22:07:59;15.43;;;4.50;;
29774;SDS011;16676;51.202;6.774;2023-02-01T22:12:02;11.77;;;4.10;;
29774;SDS011;16676;51.202;6.774;2023-02-01T22:16:05;14.48;;;4.47;;
29774;SDS011;16676;51.202;6.774;2023-02-01T22:20:08;11.52;;;3.45;;
29774;SDS011;16676;51.202;6.774;2023-02-01T22:24:12;14.23;;;4.45;;
29774;SDS011;16676;51.202;6.774;2023-02-01T22:28:15;11.45;;;4.13;;
29774;SDS011;16676;51.202;6.774;2023-02-01T22:32:18;9.23;;;3.20;;
29774;SDS011;16676;51.202;6.774;2023-02-01T22:36:20;15.80;;;4.20;;
29774;SDS011;16676;51.202;6.774;2023-02-01T22:40:24;13.60;;;3.88;;
29774;SDS011;16676;51.202;6.774;2023-02-01T22:44:26;9.38;;;3.55;;
29774;SDS011;16676;51.202;6.774;2023-02-01T22:48:29;11.95;;;3.72;;
29774;SDS011;16676;51.202;6.774;2023-02-01T22:52:34;11.88;;;3.78;;
29774;SDS011;16676;51.202;6.774;2023-02-01T22:56:36;11.35;;;3.67;;
29774;SDS011;16676;51.202;6.774;2023-02-01T23:00:38;9.63;;;3.58;;
29774;SDS011;16676;51.202;6.774;2023-02-01T23:04:41;11.35;;;3.78;;
29774;SDS011;16676;51.202;6.774;2023-02-01T23:08:44;8.27;;;4.05;;
29774;SDS011;16676;51.202;6.774;2023-02-01T23:12:46;9.10;;;3.55;;
29774;SDS011;16676;51.202;6.774;2023-02-01T23:16:49;11.10;;;3.95;;
29774;SDS011;16676;51.202;6.774;2023-02-01T23:20:52;11.18;;;3.85;;
29774;SDS011;16676;51.202;6.774;2023-02-01T23:24:54;8.68;;;3.30;;
29774;SDS011;16676;51.202;6.774;2023-02-01T23:28:57;10.45;;;3.35;;
29774;SDS011;16676;51.202;6.774;2023-02-01T23:33:00;9.60;;;3.45;;
29774;SDS011;16676;51.202;6.774;2023-02-01T23:37:03;10.68;;;3.50;;
29774;SDS011;16676;51.202;6.774;2023-02-01T23:41:05;9.63;;;3.38;;
29774;SDS011;16676;51.202;6.774;2023-02-01T23:45:08;8.80;;;2.97;;
29774;SDS011;16676;51.202;6.774;2023-02-01T23:49:10;8.35;;;3.67;;
29774;SDS011;16676;51.202;6.774;2023-02-01T23:53:15;7.78;;;3.10;;
29774;SDS011;16676;51.202;6.774;2023-02-01T23:57:17;9.00;;;3.60;;
